RDS143 KRNO-KOAK
Flight info
| Callsign | RDS143 |
|---|---|
| Flight time | 0h 41m |
| Altitude | 29000 |
| Route | PVINE5 CRDDZ DCT MRLET OAKES3 |
| Aircraft | E75L/M-VGDW/C |
Departure
| Time | 2026-04-29 03:24 |
|---|---|
| Airport | Reno Tahoe International Airport (KRNO) |
Arrival
| Time | 2026-04-29 04:05 |
|---|---|
| Airport | San Francisco Bay Oakland International Airport (KOAK) |
| Time | Latitude | Longitude | Altitude | Speed | Heading |
|---|---|---|---|---|---|
| 2026-04-29 03:00 | 39.50751 | -119.77247 | 4407 ft | 0 kts | 180° |
| 2026-04-29 03:14 | 39.50756 | -119.77247 | 4407 ft | 3 kts | 180° |
| 2026-04-29 03:14 | 39.50782 | -119.77249 | 4407 ft | 4 kts | 163° |
| 2026-04-29 03:14 | 39.50801 | -119.77268 | 4407 ft | 4 kts | 107° |
| 2026-04-29 03:14 | 39.50802 | -119.77284 | 4407 ft | 1 kts | 90° |
| 2026-04-29 03:15 | 39.50802 | -119.77285 | 4407 ft | 0 kts | 90° |
| 2026-04-29 03:17 | 39.50802 | -119.77284 | 4407 ft | 1 kts | 90° |
| 2026-04-29 03:17 | 39.50802 | -119.77258 | 4407 ft | 6 kts | 90° |
| 2026-04-29 03:17 | 39.50803 | -119.77195 | 4406 ft | 8 kts | 94° |
| 2026-04-29 03:17 | 39.50791 | -119.77153 | 4407 ft | 6 kts | 137° |
| 2026-04-29 03:18 | 39.50747 | -119.77149 | 4408 ft | 5 kts | 181° |
| 2026-04-29 03:18 | 39.50715 | -119.77149 | 4409 ft | 6 kts | 180° |
| 2026-04-29 03:18 | 39.50664 | -119.77149 | 4409 ft | 9 kts | 182° |
| 2026-04-29 03:18 | 39.50586 | -119.77151 | 4409 ft | 14 kts | 180° |
| 2026-04-29 03:19 | 39.50472 | -119.77151 | 4407 ft | 18 kts | 180° |
| 2026-04-29 03:19 | 39.50348 | -119.77150 | 4409 ft | 17 kts | 179° |
| 2026-04-29 03:19 | 39.50226 | -119.77152 | 4409 ft | 18 kts | 182° |
| 2026-04-29 03:19 | 39.50135 | -119.77153 | 4407 ft | 20 kts | 180° |
| 2026-04-29 03:20 | 39.49994 | -119.77154 | 4407 ft | 21 kts | 180° |
| 2026-04-29 03:20 | 39.49849 | -119.77152 | 4407 ft | 21 kts | 180° |
| 2026-04-29 03:20 | 39.49693 | -119.77151 | 4404 ft | 23 kts | 181° |
| 2026-04-29 03:20 | 39.49544 | -119.77155 | 4407 ft | 17 kts | 181° |
| 2026-04-29 03:21 | 39.49420 | -119.77155 | 4405 ft | 19 kts | 179° |
| 2026-04-29 03:21 | 39.49280 | -119.77151 | 4404 ft | 21 kts | 182° |
| 2026-04-29 03:21 | 39.49141 | -119.77155 | 4407 ft | 20 kts | 180° |
| 2026-04-29 03:21 | 39.48999 | -119.77154 | 4405 ft | 19 kts | 180° |
| 2026-04-29 03:22 | 39.48926 | -119.77096 | 4403 ft | 13 kts | 95° |
| 2026-04-29 03:22 | 39.48925 | -119.76967 | 4402 ft | 15 kts | 89° |
| 2026-04-29 03:22 | 39.48926 | -119.76819 | 4402 ft | 14 kts | 89° |
| 2026-04-29 03:22 | 39.48939 | -119.76699 | 4403 ft | 12 kts | 45° |
| 2026-04-29 03:23 | 39.48983 | -119.76683 | 4403 ft | 3 kts | 359° |
| 2026-04-29 03:23 | 39.49229 | -119.76684 | 4408 ft | 71 kts | 359° |
| 2026-04-29 03:23 | 39.49964 | -119.76683 | 4406 ft | 139 kts | 0° |
| 2026-04-29 03:23 | 39.51085 | -119.76709 | 4675 ft | 175 kts | 354° |
| 2026-04-29 03:24 | 39.52373 | -119.76746 | 5388 ft | 192 kts | 356° |
| 2026-04-29 03:24 | 39.53756 | -119.76728 | 6280 ft | 205 kts | 356° |
| 2026-04-29 03:24 | 39.55207 | -119.76855 | 7225 ft | 214 kts | 348° |
| 2026-04-29 03:24 | 39.56717 | -119.77188 | 8110 ft | 224 kts | 348° |
| 2026-04-29 03:25 | 39.58259 | -119.77457 | 8796 ft | 224 kts | 352° |
| 2026-04-29 03:25 | 39.59843 | -119.77470 | 9221 ft | 235 kts | 359° |
| 2026-04-29 03:25 | 39.61506 | -119.77437 | 9622 ft | 243 kts | 355° |
| 2026-04-29 03:25 | 39.63185 | -119.77855 | 9979 ft | 257 kts | 333° |
| 2026-04-29 03:26 | 39.64522 | -119.79469 | 10131 ft | 277 kts | 298° |
| 2026-04-29 03:26 | 39.65108 | -119.81912 | 10465 ft | 293 kts | 276° |
| 2026-04-29 03:26 | 39.65145 | -119.84636 | 10779 ft | 311 kts | 269° |
| 2026-04-29 03:26 | 39.65184 | -119.87508 | 11139 ft | 323 kts | 273° |
| 2026-04-29 03:27 | 39.65120 | -119.90429 | 11632 ft | 333 kts | 258° |
| 2026-04-29 03:27 | 39.63827 | -119.92912 | 12060 ft | 347 kts | 216° |
| 2026-04-29 03:27 | 39.61534 | -119.93898 | 12708 ft | 356 kts | 186° |
| 2026-04-29 03:27 | 39.59051 | -119.93559 | 13354 ft | 365 kts | 166° |
| 2026-04-29 03:28 | 39.56699 | -119.92298 | 14164 ft | 368 kts | 154° |
| 2026-04-29 03:28 | 39.54420 | -119.90756 | 14953 ft | 371 kts | 155° |
| 2026-04-29 03:28 | 39.52000 | -119.89579 | 15647 ft | 372 kts | 169° |
| 2026-04-29 03:28 | 39.49430 | -119.89341 | 16390 ft | 369 kts | 186° |
| 2026-04-29 03:29 | 39.46863 | -119.89711 | 16950 ft | 375 kts | 190° |
| 2026-04-29 03:29 | 39.44266 | -119.90208 | 17537 ft | 379 kts | 189° |
| 2026-04-29 03:29 | 39.41609 | -119.90418 | 18070 ft | 386 kts | 181° |
| 2026-04-29 03:29 | 39.38921 | -119.90139 | 18683 ft | 390 kts | 173° |
| 2026-04-29 03:30 | 39.36231 | -119.89519 | 19217 ft | 394 kts | 171° |
| 2026-04-29 03:30 | 39.33528 | -119.88808 | 19785 ft | 398 kts | 170° |
| 2026-04-29 03:30 | 39.30794 | -119.88081 | 20192 ft | 405 kts | 170° |
| 2026-04-29 03:30 | 39.28039 | -119.87332 | 20834 ft | 404 kts | 169° |
| 2026-04-29 03:31 | 39.22497 | -119.85767 | 21862 ft | 411 kts | 168° |
| 2026-04-29 03:31 | 39.19711 | -119.84920 | 22340 ft | 415 kts | 168° |
| 2026-04-29 03:31 | 39.16894 | -119.84022 | 22804 ft | 417 kts | 167° |
| 2026-04-29 03:32 | 39.14060 | -119.83123 | 23243 ft | 421 kts | 170° |
| 2026-04-29 03:32 | 39.11158 | -119.82852 | 23739 ft | 419 kts | 186° |
| 2026-04-29 03:32 | 39.08295 | -119.83515 | 24237 ft | 418 kts | 194° |
| 2026-04-29 03:32 | 39.05447 | -119.84361 | 24668 ft | 421 kts | 194° |
| 2026-04-29 03:33 | 39.02573 | -119.85207 | 25002 ft | 426 kts | 194° |
| 2026-04-29 03:33 | 38.99683 | -119.86073 | 25382 ft | 428 kts | 195° |
| 2026-04-29 03:33 | 38.96770 | -119.86954 | 25749 ft | 430 kts | 194° |
| 2026-04-29 03:33 | 38.93853 | -119.87795 | 26193 ft | 430 kts | 194° |
| 2026-04-29 03:34 | 38.90936 | -119.88632 | 26622 ft | 430 kts | 194° |
| 2026-04-29 03:34 | 38.88025 | -119.89484 | 27070 ft | 429 kts | 194° |
| 2026-04-29 03:34 | 38.85107 | -119.90339 | 27388 ft | 432 kts | 194° |
| 2026-04-29 03:34 | 38.82186 | -119.91203 | 27848 ft | 428 kts | 194° |
| 2026-04-29 03:35 | 38.79290 | -119.92070 | 28139 ft | 429 kts | 194° |
| 2026-04-29 03:35 | 38.76437 | -119.92914 | 27889 ft | 412 kts | 194° |
| 2026-04-29 03:35 | 38.73695 | -119.93722 | 27957 ft | 403 kts | 194° |
| 2026-04-29 03:35 | 38.70934 | -119.94533 | 28057 ft | 413 kts | 194° |
| 2026-04-29 03:36 | 38.65228 | -119.96220 | 28080 ft | 427 kts | 194° |
| 2026-04-29 03:36 | 38.59437 | -119.97935 | 28013 ft | 426 kts | 194° |
| 2026-04-29 03:37 | 38.53673 | -119.99637 | 28025 ft | 427 kts | 194° |
| 2026-04-29 03:37 | 38.47870 | -120.01347 | 28005 ft | 427 kts | 194° |
| 2026-04-29 03:38 | 38.45020 | -120.02187 | 27999 ft | 426 kts | 194° |
| 2026-04-29 03:38 | 38.42138 | -120.03034 | 28001 ft | 425 kts | 194° |
| 2026-04-29 03:38 | 38.39260 | -120.03881 | 27999 ft | 425 kts | 194° |
| 2026-04-29 03:38 | 38.36378 | -120.04728 | 28011 ft | 425 kts | 194° |
| 2026-04-29 03:39 | 38.33492 | -120.05575 | 28000 ft | 426 kts | 194° |
| 2026-04-29 03:39 | 38.30608 | -120.06420 | 27999 ft | 424 kts | 195° |
| 2026-04-29 03:39 | 38.27845 | -120.07657 | 28011 ft | 421 kts | 207° |
| 2026-04-29 03:39 | 38.25249 | -120.09392 | 28025 ft | 421 kts | 210° |
| 2026-04-29 03:40 | 38.22685 | -120.11189 | 27997 ft | 420 kts | 210° |
| 2026-04-29 03:40 | 38.20126 | -120.12973 | 27996 ft | 419 kts | 210° |
| 2026-04-29 03:40 | 38.15022 | -120.16520 | 27731 ft | 423 kts | 210° |
| 2026-04-29 03:41 | 38.12445 | -120.18307 | 27345 ft | 421 kts | 210° |
| 2026-04-29 03:41 | 38.09877 | -120.20083 | 26965 ft | 419 kts | 210° |
| 2026-04-29 03:41 | 38.07317 | -120.21854 | 26600 ft | 419 kts | 210° |
| 2026-04-29 03:41 | 38.04761 | -120.23622 | 26232 ft | 419 kts | 210° |
| 2026-04-29 03:42 | 38.02200 | -120.25390 | 25869 ft | 419 kts | 210° |
| 2026-04-29 03:42 | 37.99642 | -120.27156 | 25503 ft | 418 kts | 210° |
| 2026-04-29 03:42 | 37.97108 | -120.28901 | 25113 ft | 409 kts | 210° |
| 2026-04-29 03:42 | 37.94627 | -120.30608 | 24747 ft | 403 kts | 210° |
| 2026-04-29 03:43 | 37.92179 | -120.32292 | 24385 ft | 398 kts | 210° |
| 2026-04-29 03:43 | 37.89800 | -120.34053 | 24004 ft | 394 kts | 219° |
| 2026-04-29 03:43 | 37.88026 | -120.36625 | 23625 ft | 388 kts | 243° |
| 2026-04-29 03:43 | 37.87190 | -120.39829 | 23382 ft | 383 kts | 258° |
| 2026-04-29 03:44 | 37.86697 | -120.43134 | 23155 ft | 382 kts | 259° |
| 2026-04-29 03:44 | 37.86186 | -120.46437 | 22910 ft | 382 kts | 259° |
| 2026-04-29 03:44 | 37.85657 | -120.49723 | 22652 ft | 381 kts | 258° |
| 2026-04-29 03:44 | 37.85120 | -120.52995 | 22383 ft | 379 kts | 258° |
| 2026-04-29 03:45 | 37.84580 | -120.56245 | 22113 ft | 377 kts | 258° |
| 2026-04-29 03:45 | 37.84038 | -120.59477 | 21839 ft | 375 kts | 258° |
| 2026-04-29 03:45 | 37.83495 | -120.62704 | 21578 ft | 373 kts | 258° |
| 2026-04-29 03:45 | 37.82954 | -120.65901 | 21312 ft | 371 kts | 258° |
| 2026-04-29 03:46 | 37.82415 | -120.69079 | 21133 ft | 369 kts | 258° |
| 2026-04-29 03:46 | 37.81875 | -120.72250 | 20975 ft | 368 kts | 258° |
| 2026-04-29 03:46 | 37.81336 | -120.75411 | 20817 ft | 368 kts | 258° |
| 2026-04-29 03:46 | 37.80795 | -120.78570 | 20653 ft | 367 kts | 258° |
| 2026-04-29 03:47 | 37.80265 | -120.81666 | 20481 ft | 360 kts | 258° |
| 2026-04-29 03:47 | 37.79742 | -120.84702 | 20294 ft | 348 kts | 258° |
| 2026-04-29 03:47 | 37.79233 | -120.87653 | 20108 ft | 341 kts | 258° |
| 2026-04-29 03:47 | 37.78724 | -120.90576 | 19751 ft | 340 kts | 258° |
| 2026-04-29 03:48 | 37.78218 | -120.93484 | 19335 ft | 338 kts | 258° |
| 2026-04-29 03:48 | 37.77714 | -120.96369 | 18884 ft | 334 kts | 258° |
| 2026-04-29 03:48 | 37.77218 | -120.99212 | 18443 ft | 329 kts | 258° |
| 2026-04-29 03:48 | 37.76727 | -121.02020 | 18011 ft | 326 kts | 258° |
| 2026-04-29 03:49 | 37.76238 | -121.04818 | 17583 ft | 325 kts | 258° |
| 2026-04-29 03:49 | 37.75750 | -121.07602 | 17158 ft | 323 kts | 258° |
| 2026-04-29 03:49 | 37.75271 | -121.10362 | 16743 ft | 321 kts | 258° |
| 2026-04-29 03:49 | 37.74809 | -121.13015 | 16328 ft | 318 kts | 258° |
| 2026-04-29 03:50 | 37.74328 | -121.15781 | 15903 ft | 316 kts | 258° |
| 2026-04-29 03:50 | 37.73856 | -121.18485 | 15488 ft | 314 kts | 258° |
| 2026-04-29 03:50 | 37.73387 | -121.21168 | 15085 ft | 312 kts | 258° |
| 2026-04-29 03:50 | 37.72921 | -121.23832 | 14690 ft | 310 kts | 258° |
| 2026-04-29 03:51 | 37.72456 | -121.26482 | 14296 ft | 308 kts | 258° |
| 2026-04-29 03:51 | 37.71995 | -121.29114 | 13904 ft | 306 kts | 258° |
| 2026-04-29 03:51 | 37.71535 | -121.31730 | 13514 ft | 304 kts | 258° |
| 2026-04-29 03:51 | 37.71031 | -121.34315 | 13122 ft | 302 kts | 253° |
| 2026-04-29 03:52 | 37.70332 | -121.36791 | 12729 ft | 296 kts | 251° |
| 2026-04-29 03:52 | 37.69789 | -121.39272 | 12363 ft | 290 kts | 258° |
| 2026-04-29 03:52 | 37.69282 | -121.41715 | 11960 ft | 287 kts | 251° |
| 2026-04-29 03:52 | 37.68532 | -121.44037 | 11591 ft | 284 kts | 248° |
| 2026-04-29 03:53 | 37.67810 | -121.46347 | 11231 ft | 282 kts | 250° |
| 2026-04-29 03:53 | 37.67122 | -121.48662 | 10874 ft | 281 kts | 251° |
| 2026-04-29 03:53 | 37.66461 | -121.50977 | 10520 ft | 280 kts | 251° |
| 2026-04-29 03:53 | 37.65816 | -121.53264 | 10170 ft | 279 kts | 251° |
| 2026-04-29 03:54 | 37.65174 | -121.55569 | 9818 ft | 278 kts | 251° |
| 2026-04-29 03:54 | 37.64539 | -121.57868 | 9476 ft | 276 kts | 251° |
| 2026-04-29 03:54 | 37.63914 | -121.60146 | 9122 ft | 272 kts | 252° |
| 2026-04-29 03:54 | 37.63325 | -121.62384 | 8764 ft | 264 kts | 251° |
| 2026-04-29 03:55 | 37.62714 | -121.64544 | 8404 ft | 258 kts | 251° |
| 2026-04-29 03:55 | 37.62138 | -121.66654 | 8048 ft | 251 kts | 255° |
| 2026-04-29 03:55 | 37.62079 | -121.68810 | 7684 ft | 246 kts | 281° |
| 2026-04-29 03:55 | 37.62473 | -121.70880 | 7380 ft | 239 kts | 283° |
| 2026-04-29 03:56 | 37.62857 | -121.72892 | 7076 ft | 232 kts | 283° |
| 2026-04-29 03:56 | 37.63223 | -121.74847 | 6785 ft | 227 kts | 283° |
| 2026-04-29 03:56 | 37.63579 | -121.76742 | 6546 ft | 216 kts | 283° |
| 2026-04-29 03:56 | 37.63920 | -121.78526 | 6298 ft | 203 kts | 283° |
| 2026-04-29 03:57 | 37.64239 | -121.80197 | 6049 ft | 188 kts | 283° |
| 2026-04-29 03:57 | 37.64536 | -121.81745 | 5781 ft | 179 kts | 283° |
| 2026-04-29 03:57 | 37.64832 | -121.83269 | 5533 ft | 178 kts | 283° |
| 2026-04-29 03:57 | 37.65128 | -121.84796 | 5285 ft | 180 kts | 283° |
| 2026-04-29 03:58 | 37.65419 | -121.86332 | 5039 ft | 180 kts | 283° |
| 2026-04-29 03:58 | 37.65712 | -121.87859 | 4893 ft | 179 kts | 283° |
| 2026-04-29 03:58 | 37.66005 | -121.89374 | 4876 ft | 176 kts | 283° |
| 2026-04-29 03:58 | 37.66296 | -121.90901 | 4884 ft | 180 kts | 283° |
| 2026-04-29 03:59 | 37.66598 | -121.92453 | 4817 ft | 184 kts | 283° |
| 2026-04-29 03:59 | 37.66904 | -121.94027 | 4628 ft | 186 kts | 282° |
| 2026-04-29 03:59 | 37.67206 | -121.95593 | 4412 ft | 182 kts | 283° |
| 2026-04-29 03:59 | 37.67509 | -121.97143 | 4142 ft | 181 kts | 283° |
| 2026-04-29 04:00 | 37.67805 | -121.98672 | 3887 ft | 179 kts | 283° |
| 2026-04-29 04:00 | 37.68094 | -122.00195 | 3623 ft | 177 kts | 283° |
| 2026-04-29 04:00 | 37.68382 | -122.01696 | 3369 ft | 176 kts | 283° |
| 2026-04-29 04:00 | 37.68671 | -122.03191 | 3109 ft | 176 kts | 284° |
| 2026-04-29 04:01 | 37.68948 | -122.04644 | 2837 ft | 161 kts | 282° |
| 2026-04-29 04:01 | 37.69185 | -122.05907 | 2763 ft | 139 kts | 283° |
| 2026-04-29 04:01 | 37.69417 | -122.07065 | 2723 ft | 135 kts | 283° |
| 2026-04-29 04:01 | 37.69640 | -122.08182 | 2868 ft | 124 kts | 283° |
| 2026-04-29 04:02 | 37.69844 | -122.09252 | 3028 ft | 133 kts | 281° |
| 2026-04-29 04:02 | 37.70038 | -122.10393 | 2732 ft | 133 kts | 281° |
| 2026-04-29 04:02 | 37.70214 | -122.11524 | 2363 ft | 131 kts | 280° |
| 2026-04-29 04:02 | 37.70394 | -122.12624 | 1960 ft | 129 kts | 281° |
| 2026-04-29 04:03 | 37.70604 | -122.13719 | 1561 ft | 128 kts | 282° |
| 2026-04-29 04:03 | 37.70815 | -122.14764 | 1300 ft | 118 kts | 285° |
| 2026-04-29 04:03 | 37.71051 | -122.15722 | 1062 ft | 113 kts | 289° |
| 2026-04-29 04:03 | 37.71305 | -122.16682 | 855 ft | 117 kts | 286° |
| 2026-04-29 04:04 | 37.71566 | -122.17646 | 723 ft | 117 kts | 290° |
| 2026-04-29 04:04 | 37.71881 | -122.18600 | 506 ft | 116 kts | 289° |
| 2026-04-29 04:04 | 37.72080 | -122.19227 | 345 ft | 115 kts | 291° |
| 2026-04-29 04:04 | 37.72380 | -122.20168 | 116 ft | 115 kts | 291° |
| 2026-04-29 04:05 | 37.72662 | -122.21034 | 7 ft | 94 kts | 294° |
| 2026-04-29 04:05 | 37.72862 | -122.21636 | 1 ft | 62 kts | 292° |
| 2026-04-29 04:05 | 37.72983 | -122.22001 | 3 ft | 30 kts | 291° |
| 2026-04-29 04:05 | 37.73048 | -122.22181 | 3 ft | 10 kts | 324° |
| 2026-04-29 04:06 | 37.73098 | -122.22179 | 5 ft | 9 kts | 20° |
| 2026-04-29 04:06 | 37.73109 | -122.22172 | 5 ft | 4 kts | 30° |
| 2026-04-29 04:06 | 37.73112 | -122.22119 | 5 ft | 10 kts | 120° |
| 2026-04-29 04:06 | 37.73079 | -122.22002 | 3 ft | 16 kts | 109° |
| 2026-04-29 04:07 | 37.73028 | -122.21865 | 2 ft | 19 kts | 104° |
| 2026-04-29 04:07 | 37.72983 | -122.21692 | 0 ft | 22 kts | 111° |
| 2026-04-29 04:07 | 37.72924 | -122.21507 | 3 ft | 23 kts | 113° |
| 2026-04-29 04:07 | 37.72861 | -122.21314 | 5 ft | 24 kts | 112° |
| 2026-04-29 04:08 | 37.72869 | -122.21146 | 8 ft | 18 kts | 38° |
| 2026-04-29 04:08 | 37.72910 | -122.21122 | 8 ft | 0 kts | 37° |